sensor_id;sensor_type;location;lat;lon;timestamp;pressure;altitude;pressure_sealevel;temperature;humidity
13594;BME280;6449;47.666;9.160;2022-12-10T00:01:22;95653.72;;;2.33;100.00
13594;BME280;6449;47.666;9.160;2022-12-10T00:06:19;95656.22;;;2.35;100.00
13594;BME280;6449;47.666;9.160;2022-12-10T00:11:15;95655.84;;;2.41;100.00
13594;BME280;6449;47.666;9.160;2022-12-10T00:16:11;95642.69;;;2.44;100.00
13594;BME280;6449;47.666;9.160;2022-12-10T00:21:10;95643.63;;;2.43;100.00
13594;BME280;6449;47.666;9.160;2022-12-10T00:26:05;95637.44;;;2.46;100.00
13594;BME280;6449;47.666;9.160;2022-12-10T00:31:04;95638.28;;;2.46;100.00
13594;BME280;6449;47.666;9.160;2022-12-10T00:36:03;95637.34;;;2.47;100.00
13594;BME280;6449;47.666;9.160;2022-12-10T00:40:58;95646.72;;;2.35;100.00
13594;BME280;6449;47.666;9.160;2022-12-10T00:45:52;95638.75;;;2.39;100.00
13594;BME280;6449;47.666;9.160;2022-12-10T00:50:56;95645.50;;;2.41;100.00
13594;BME280;6449;47.666;9.160;2022-12-10T00:55:49;95652.13;;;2.45;100.00
13594;BME280;6449;47.666;9.160;2022-12-10T01:00:44;95655.56;;;2.46;100.00
13594;BME280;6449;47.666;9.160;2022-12-10T01:05:38;95649.34;;;2.48;100.00
13594;BME280;6449;47.666;9.160;2022-12-10T01:10:31;95639.69;;;2.38;100.00
13594;BME280;6449;47.666;9.160;2022-12-10T01:15:25;95654.88;;;2.29;100.00
13594;BME280;6449;47.666;9.160;2022-12-10T01:20:19;95640.91;;;2.32;100.00
13594;BME280;6449;47.666;9.160;2022-12-10T01:25:13;95636.97;;;2.39;100.00
13594;BME280;6449;47.666;9.160;2022-12-10T01:30:08;95639.13;;;2.32;100.00
13594;BME280;6449;47.666;9.160;2022-12-10T01:35:02;95633.69;;;2.37;100.00
13594;BME280;6449;47.666;9.160;2022-12-10T01:39:57;95643.88;;;2.53;100.00
13594;BME280;6449;47.666;9.160;2022-12-10T01:45:05;95638.59;;;2.54;100.00
13594;BME280;6449;47.666;9.160;2022-12-10T01:50:00;95646.34;;;2.54;100.00
13594;BME280;6449;47.666;9.160;2022-12-10T01:54:54;95654.47;;;2.35;100.00
13594;BME280;6449;47.666;9.160;2022-12-10T01:59:53;95661.03;;;2.27;100.00
13594;BME280;6449;47.666;9.160;2022-12-10T02:05:03;95667.47;;;2.34;100.00
13594;BME280;6449;47.666;9.160;2022-12-10T02:10:07;95676.16;;;2.33;100.00
13594;BME280;6449;47.666;9.160;2022-12-10T02:15:12;95676.91;;;2.35;100.00
13594;BME280;6449;47.666;9.160;2022-12-10T02:20:12;95677.22;;;2.30;100.00
13594;BME280;6449;47.666;9.160;2022-12-10T02:25:11;95673.25;;;2.25;100.00
13594;BME280;6449;47.666;9.160;2022-12-10T02:30:09;95659.72;;;2.34;100.00
13594;BME280;6449;47.666;9.160;2022-12-10T02:35:09;95661.94;;;2.40;100.00
13594;BME280;6449;47.666;9.160;2022-12-10T02:40:09;95672.84;;;2.45;100.00
13594;BME280;6449;47.666;9.160;2022-12-10T02:45:08;95665.50;;;2.52;100.00
13594;BME280;6449;47.666;9.160;2022-12-10T02:50:05;95653.41;;;2.52;100.00
13594;BME280;6449;47.666;9.160;2022-12-10T02:55:00;95651.00;;;2.49;100.00
13594;BME280;6449;47.666;9.160;2022-12-10T03:00:05;95646.03;;;2.46;100.00
13594;BME280;6449;47.666;9.160;2022-12-10T03:05:07;95653.94;;;2.30;100.00
13594;BME280;6449;47.666;9.160;2022-12-10T03:10:10;95650.53;;;2.30;100.00
13594;BME280;6449;47.666;9.160;2022-12-10T03:15:10;95664.66;;;2.24;100.00
13594;BME280;6449;47.666;9.160;2022-12-10T03:20:08;95644.97;;;2.36;100.00
13594;BME280;6449;47.666;9.160;2022-12-10T03:25:05;95635.53;;;2.35;100.00
13594;BME280;6449;47.666;9.160;2022-12-10T03:30:00;95641.16;;;2.42;100.00
13594;BME280;6449;47.666;9.160;2022-12-10T03:34:56;95642.16;;;2.39;100.00
13594;BME280;6449;47.666;9.160;2022-12-10T03:39:52;95642.00;;;2.28;100.00
13594;BME280;6449;47.666;9.160;2022-12-10T03:44:50;95637.31;;;2.34;100.00
13594;BME280;6449;47.666;9.160;2022-12-10T03:49:44;95642.91;;;2.41;100.00
13594;BME280;6449;47.666;9.160;2022-12-10T03:54:38;95644.38;;;2.45;100.00
13594;BME280;6449;47.666;9.160;2022-12-10T03:59:32;95650.91;;;2.51;100.00
13594;BME280;6449;47.666;9.160;2022-12-10T04:04:26;95639.81;;;2.49;100.00
13594;BME280;6449;47.666;9.160;2022-12-10T04:09:20;95642.50;;;2.47;100.00
13594;BME280;6449;47.666;9.160;2022-12-10T04:14:14;95652.03;;;2.47;100.00
13594;BME280;6449;47.666;9.160;2022-12-10T04:19:26;95659.69;;;2.48;100.00
13594;BME280;6449;47.666;9.160;2022-12-10T04:24:23;95660.72;;;2.46;100.00
13594;BME280;6449;47.666;9.160;2022-12-10T04:29:34;95656.16;;;2.49;100.00
13594;BME280;6449;47.666;9.160;2022-12-10T04:34:29;95669.16;;;2.35;100.00
13594;BME280;6449;47.666;9.160;2022-12-10T04:39:23;95671.94;;;2.32;100.00
13594;BME280;6449;47.666;9.160;2022-12-10T04:44:18;95675.56;;;2.15;100.00
13594;BME280;6449;47.666;9.160;2022-12-10T04:49:12;95675.84;;;2.25;100.00
13594;BME280;6449;47.666;9.160;2022-12-10T04:54:07;95670.44;;;2.28;100.00
13594;BME280;6449;47.666;9.160;2022-12-10T04:59:02;95671.78;;;2.21;100.00
13594;BME280;6449;47.666;9.160;2022-12-10T05:04:00;95668.06;;;2.25;100.00
13594;BME280;6449;47.666;9.160;2022-12-10T05:08:55;95673.91;;;2.14;100.00
13594;BME280;6449;47.666;9.160;2022-12-10T05:13:52;95672.16;;;2.15;100.00
13594;BME280;6449;47.666;9.160;2022-12-10T05:18:45;95673.09;;;2.14;100.00
13594;BME280;6449;47.666;9.160;2022-12-10T05:23:42;95679.47;;;2.08;100.00
13594;BME280;6449;47.666;9.160;2022-12-10T05:28:39;95675.47;;;2.17;100.00
13594;BME280;6449;47.666;9.160;2022-12-10T05:33:34;95676.03;;;2.07;100.00
13594;BME280;6449;47.666;9.160;2022-12-10T05:38:30;95682.72;;;1.97;100.00
13594;BME280;6449;47.666;9.160;2022-12-10T05:43:24;95685.84;;;1.88;100.00
13594;BME280;6449;47.666;9.160;2022-12-10T05:48:17;95690.00;;;2.05;100.00
13594;BME280;6449;47.666;9.160;2022-12-10T05:53:13;95684.81;;;2.05;100.00
13594;BME280;6449;47.666;9.160;2022-12-10T05:58:09;95685.38;;;2.10;100.00
13594;BME280;6449;47.666;9.160;2022-12-10T06:03:03;95682.28;;;2.18;100.00
13594;BME280;6449;47.666;9.160;2022-12-10T06:07:57;95693.72;;;2.28;100.00
13594;BME280;6449;47.666;9.160;2022-12-10T06:12:58;95694.88;;;2.24;100.00
13594;BME280;6449;47.666;9.160;2022-12-10T06:18:06;95695.19;;;2.32;100.00
13594;BME280;6449;47.666;9.160;2022-12-10T06:23:00;95697.25;;;2.27;100.00
13594;BME280;6449;47.666;9.160;2022-12-10T06:27:59;95708.31;;;2.29;100.00
13594;BME280;6449;47.666;9.160;2022-12-10T06:32:53;95700.38;;;2.32;100.00
13594;BME280;6449;47.666;9.160;2022-12-10T06:37:46;95701.19;;;2.32;100.00
13594;BME280;6449;47.666;9.160;2022-12-10T06:42:40;95708.97;;;2.32;100.00
13594;BME280;6449;47.666;9.160;2022-12-10T06:47:34;95713.47;;;2.29;100.00
13594;BME280;6449;47.666;9.160;2022-12-10T06:52:34;95720.34;;;2.30;100.00
13594;BME280;6449;47.666;9.160;2022-12-10T06:57:27;95708.31;;;2.29;100.00
13594;BME280;6449;47.666;9.160;2022-12-10T07:02:20;95710.63;;;2.33;100.00
13594;BME280;6449;47.666;9.160;2022-12-10T07:07:17;95716.06;;;2.29;100.00
13594;BME280;6449;47.666;9.160;2022-12-10T07:12:10;95718.31;;;2.21;100.00
13594;BME280;6449;47.666;9.160;2022-12-10T07:17:04;95717.78;;;1.87;100.00
13594;BME280;6449;47.666;9.160;2022-12-10T07:21:57;95726.00;;;1.79;100.00
13594;BME280;6449;47.666;9.160;2022-12-10T07:26:52;95720.94;;;1.92;100.00
13594;BME280;6449;47.666;9.160;2022-12-10T07:31:47;95725.44;;;2.03;100.00
13594;BME280;6449;47.666;9.160;2022-12-10T07:36:41;95732.72;;;2.10;100.00
13594;BME280;6449;47.666;9.160;2022-12-10T07:41:35;95728.28;;;2.13;100.00
13594;BME280;6449;47.666;9.160;2022-12-10T07:46:31;95718.41;;;2.19;100.00
13594;BME280;6449;47.666;9.160;2022-12-10T07:51:25;95734.75;;;2.20;100.00
13594;BME280;6449;47.666;9.160;2022-12-10T07:56:19;95736.59;;;2.18;100.00
13594;BME280;6449;47.666;9.160;2022-12-10T08:01:17;95740.84;;;2.19;100.00
13594;BME280;6449;47.666;9.160;2022-12-10T08:06:15;95744.00;;;2.24;100.00
13594;BME280;6449;47.666;9.160;2022-12-10T08:11:10;95742.84;;;2.28;100.00
13594;BME280;6449;47.666;9.160;2022-12-10T08:16:07;95737.16;;;2.08;100.00
13594;BME280;6449;47.666;9.160;2022-12-10T08:21:04;95755.97;;;2.25;100.00
13594;BME280;6449;47.666;9.160;2022-12-10T08:26:03;95752.91;;;2.18;100.00
13594;BME280;6449;47.666;9.160;2022-12-10T08:30:57;95772.59;;;2.21;100.00
13594;BME280;6449;47.666;9.160;2022-12-10T08:35:51;95776.19;;;2.18;100.00
13594;BME280;6449;47.666;9.160;2022-12-10T08:40:44;95781.47;;;2.31;100.00
13594;BME280;6449;47.666;9.160;2022-12-10T08:45:41;95780.25;;;2.36;100.00
13594;BME280;6449;47.666;9.160;2022-12-10T08:50:35;95784.06;;;2.31;100.00
13594;BME280;6449;47.666;9.160;2022-12-10T08:55:29;95790.31;;;2.27;100.00
13594;BME280;6449;47.666;9.160;2022-12-10T09:00:23;95792.47;;;2.20;100.00
13594;BME280;6449;47.666;9.160;2022-12-10T09:05:18;95804.72;;;2.17;100.00
13594;BME280;6449;47.666;9.160;2022-12-10T09:10:11;95801.50;;;2.27;100.00
13594;BME280;6449;47.666;9.160;2022-12-10T09:15:08;95816.94;;;2.15;100.00
13594;BME280;6449;47.666;9.160;2022-12-10T09:20:03;95817.03;;;2.13;100.00
13594;BME280;6449;47.666;9.160;2022-12-10T09:24:58;95816.00;;;2.16;100.00
13594;BME280;6449;47.666;9.160;2022-12-10T09:29:52;95823.91;;;2.13;100.00
13594;BME280;6449;47.666;9.160;2022-12-10T09:34:50;95843.59;;;2.01;100.00
13594;BME280;6449;47.666;9.160;2022-12-10T09:39:43;95847.53;;;1.78;100.00
13594;BME280;6449;47.666;9.160;2022-12-10T09:44:50;95852.69;;;1.78;100.00
13594;BME280;6449;47.666;9.160;2022-12-10T09:50:00;95853.06;;;1.86;100.00
13594;BME280;6449;47.666;9.160;2022-12-10T09:55:10;95857.94;;;1.76;100.00
13594;BME280;6449;47.666;9.160;2022-12-10T10:00:19;95860.78;;;1.72;100.00
13594;BME280;6449;47.666;9.160;2022-12-10T10:05:20;95861.75;;;1.55;100.00
13594;BME280;6449;47.666;9.160;2022-12-10T10:10:24;95857.28;;;1.43;100.00
13594;BME280;6449;47.666;9.160;2022-12-10T10:15:29;95853.81;;;1.58;100.00
13594;BME280;6449;47.666;9.160;2022-12-10T10:20:23;95857.84;;;1.48;100.00
13594;BME280;6449;47.666;9.160;2022-12-10T10:25:18;95849.09;;;1.50;100.00
13594;BME280;6449;47.666;9.160;2022-12-10T10:30:16;95858.63;;;1.64;100.00
13594;BME280;6449;47.666;9.160;2022-12-10T10:35:27;95875.97;;;1.62;100.00
13594;BME280;6449;47.666;9.160;2022-12-10T10:40:28;95872.72;;;1.58;100.00
13594;BME280;6449;47.666;9.160;2022-12-10T10:45:38;95875.47;;;1.25;100.00
13594;BME280;6449;47.666;9.160;2022-12-10T10:50:44;95874.72;;;1.39;100.00
13594;BME280;6449;47.666;9.160;2022-12-10T10:55:41;95879.88;;;1.39;100.00
13594;BME280;6449;47.666;9.160;2022-12-10T11:00:35;95873.59;;;1.43;100.00
13594;BME280;6449;47.666;9.160;2022-12-10T11:05:30;95877.50;;;1.50;100.00
13594;BME280;6449;47.666;9.160;2022-12-10T11:10:48;95884.72;;;1.29;100.00
13594;BME280;6449;47.666;9.160;2022-12-10T11:15:42;95880.69;;;1.40;100.00
13594;BME280;6449;47.666;9.160;2022-12-10T11:20:36;95882.50;;;1.38;100.00
13594;BME280;6449;47.666;9.160;2022-12-10T11:25:46;95888.44;;;1.70;100.00
13594;BME280;6449;47.666;9.160;2022-12-10T11:30:50;95890.47;;;1.65;100.00
13594;BME280;6449;47.666;9.160;2022-12-10T11:35:59;95892.78;;;1.69;100.00
13594;BME280;6449;47.666;9.160;2022-12-10T11:41:07;95906.50;;;1.55;100.00
13594;BME280;6449;47.666;9.160;2022-12-10T11:46:18;95908.44;;;1.36;100.00
13594;BME280;6449;47.666;9.160;2022-12-10T11:51:26;95919.09;;;1.30;100.00
13594;BME280;6449;47.666;9.160;2022-12-10T11:56:30;95923.59;;;1.26;100.00
13594;BME280;6449;47.666;9.160;2022-12-10T12:01:39;95913.19;;;1.12;100.00
13594;BME280;6449;47.666;9.160;2022-12-10T12:06:58;95930.75;;;1.37;100.00
13594;BME280;6449;47.666;9.160;2022-12-10T12:12:09;95932.16;;;1.11;100.00
13594;BME280;6449;47.666;9.160;2022-12-10T12:17:10;95941.06;;;1.21;100.00
13594;BME280;6449;47.666;9.160;2022-12-10T12:22:14;95936.50;;;1.42;100.00
13594;BME280;6449;47.666;9.160;2022-12-10T12:27:19;95941.31;;;1.33;100.00
13594;BME280;6449;47.666;9.160;2022-12-10T12:32:24;95954.50;;;1.12;100.00
13594;BME280;6449;47.666;9.160;2022-12-10T12:37:25;95961.72;;;1.21;100.00
13594;BME280;6449;47.666;9.160;2022-12-10T12:42:28;95965.06;;;1.23;100.00
13594;BME280;6449;47.666;9.160;2022-12-10T12:47:37;95970.81;;;1.28;100.00
13594;BME280;6449;47.666;9.160;2022-12-10T12:52:43;95963.09;;;1.44;100.00
13594;BME280;6449;47.666;9.160;2022-12-10T12:57:48;95975.47;;;1.22;100.00
13594;BME280;6449;47.666;9.160;2022-12-10T13:03:00;95979.31;;;1.30;100.00
13594;BME280;6449;47.666;9.160;2022-12-10T13:08:31;95990.66;;;1.28;100.00
13594;BME280;6449;47.666;9.160;2022-12-10T13:13:31;95999.34;;;1.10;100.00
13594;BME280;6449;47.666;9.160;2022-12-10T13:18:40;96002.03;;;1.24;100.00
13594;BME280;6449;47.666;9.160;2022-12-10T13:23:47;96003.38;;;1.31;100.00
13594;BME280;6449;47.666;9.160;2022-12-10T13:28:52;96011.94;;;1.31;100.00
13594;BME280;6449;47.666;9.160;2022-12-10T13:33:51;96027.78;;;1.41;100.00
13594;BME280;6449;47.666;9.160;2022-12-10T13:38:57;96037.19;;;1.42;100.00
13594;BME280;6449;47.666;9.160;2022-12-10T13:44:38;96039.78;;;1.42;100.00
13594;BME280;6449;47.666;9.160;2022-12-10T13:49:50;96046.78;;;1.40;100.00
13594;BME280;6449;47.666;9.160;2022-12-10T13:55:22;96059.00;;;1.37;100.00
13594;BME280;6449;47.666;9.160;2022-12-10T14:00:20;96066.28;;;1.46;100.00
13594;BME280;6449;47.666;9.160;2022-12-10T14:10:41;96079.09;;;1.47;100.00
13594;BME280;6449;47.666;9.160;2022-12-10T14:15:38;96097.91;;;1.34;100.00
13594;BME280;6449;47.666;9.160;2022-12-10T14:20:34;96107.78;;;1.25;100.00
13594;BME280;6449;47.666;9.160;2022-12-10T14:25:28;96111.13;;;1.27;100.00
13594;BME280;6449;47.666;9.160;2022-12-10T14:30:24;96114.72;;;1.25;100.00
13594;BME280;6449;47.666;9.160;2022-12-10T14:35:26;96122.75;;;1.52;100.00
13594;BME280;6449;47.666;9.160;2022-12-10T14:40:25;96132.00;;;1.40;100.00
13594;BME280;6449;47.666;9.160;2022-12-10T14:45:40;96142.97;;;1.11;100.00
13594;BME280;6449;47.666;9.160;2022-12-10T14:50:39;96148.13;;;1.11;100.00
13594;BME280;6449;47.666;9.160;2022-12-10T14:55:34;96142.38;;;1.23;100.00
13594;BME280;6449;47.666;9.160;2022-12-10T15:00:40;96146.44;;;1.44;100.00
13594;BME280;6449;47.666;9.160;2022-12-10T15:06:07;96143.56;;;1.49;100.00
13594;BME280;6449;47.666;9.160;2022-12-10T15:11:03;96149.78;;;1.62;100.00
13594;BME280;6449;47.666;9.160;2022-12-10T15:16:05;96152.97;;;1.34;100.00
13594;BME280;6449;47.666;9.160;2022-12-10T15:21:23;96165.13;;;1.15;100.00
13594;BME280;6449;47.666;9.160;2022-12-10T15:27:20;96156.75;;;1.27;100.00
13594;BME280;6449;47.666;9.160;2022-12-10T15:48:10;96176.50;;;1.11;100.00
13594;BME280;6449;47.666;9.160;2022-12-10T16:18:40;96209.00;;;1.32;100.00
13594;BME280;6449;47.666;9.160;2022-12-10T16:23:34;96205.81;;;1.27;100.00
13594;BME280;6449;47.666;9.160;2022-12-10T16:33:35;96193.00;;;1.25;100.00
13594;BME280;6449;47.666;9.160;2022-12-10T16:43:38;96212.00;;;1.07;100.00
13594;BME280;6449;47.666;9.160;2022-12-10T16:48:31;96215.72;;;1.01;100.00
13594;BME280;6449;47.666;9.160;2022-12-10T16:53:27;96208.88;;;1.18;100.00
13594;BME280;6449;47.666;9.160;2022-12-10T16:58:24;96223.06;;;1.26;100.00
13594;BME280;6449;47.666;9.160;2022-12-10T17:03:22;96224.97;;;1.23;100.00
13594;BME280;6449;47.666;9.160;2022-12-10T17:08:17;96234.38;;;1.24;100.00
13594;BME280;6449;47.666;9.160;2022-12-10T17:13:12;96235.66;;;1.15;100.00
13594;BME280;6449;47.666;9.160;2022-12-10T17:18:09;96232.53;;;1.26;100.00
13594;BME280;6449;47.666;9.160;2022-12-10T17:23:05;96231.94;;;1.21;100.00
13594;BME280;6449;47.666;9.160;2022-12-10T17:27:59;96239.16;;;0.97;100.00
13594;BME280;6449;47.666;9.160;2022-12-10T17:32:52;96241.03;;;1.11;100.00
13594;BME280;6449;47.666;9.160;2022-12-10T17:37:46;96247.94;;;0.93;100.00
13594;BME280;6449;47.666;9.160;2022-12-10T17:42:44;96253.31;;;0.88;100.00
13594;BME280;6449;47.666;9.160;2022-12-10T17:47:37;96250.00;;;1.03;100.00
13594;BME280;6449;47.666;9.160;2022-12-10T17:52:31;96251.16;;;1.15;100.00
13594;BME280;6449;47.666;9.160;2022-12-10T17:57:24;96247.28;;;1.24;100.00
13594;BME280;6449;47.666;9.160;2022-12-10T18:02:19;96259.41;;;1.22;100.00
13594;BME280;6449;47.666;9.160;2022-12-10T18:07:16;96262.56;;;1.28;100.00
13594;BME280;6449;47.666;9.160;2022-12-10T18:12:11;96265.94;;;1.12;100.00
13594;BME280;6449;47.666;9.160;2022-12-10T18:17:11;96276.75;;;1.20;100.00
13594;BME280;6449;47.666;9.160;2022-12-10T18:22:06;96278.72;;;1.15;100.00
13594;BME280;6449;47.666;9.160;2022-12-10T18:27:00;96280.69;;;1.10;100.00
13594;BME280;6449;47.666;9.160;2022-12-10T18:31:53;96280.97;;;1.03;100.00
13594;BME280;6449;47.666;9.160;2022-12-10T18:36:48;96287.38;;;0.77;100.00
13594;BME280;6449;47.666;9.160;2022-12-10T18:41:43;96284.81;;;0.95;100.00
13594;BME280;6449;47.666;9.160;2022-12-10T18:46:39;96289.63;;;1.02;100.00
13594;BME280;6449;47.666;9.160;2022-12-10T18:51:34;96275.38;;;1.13;100.00
13594;BME280;6449;47.666;9.160;2022-12-10T18:56:29;96278.91;;;0.93;100.00
13594;BME280;6449;47.666;9.160;2022-12-10T19:01:25;96273.75;;;0.93;100.00
13594;BME280;6449;47.666;9.160;2022-12-10T19:06:21;96277.91;;;0.95;100.00
13594;BME280;6449;47.666;9.160;2022-12-10T19:11:16;96286.59;;;1.12;100.00
13594;BME280;6449;47.666;9.160;2022-12-10T19:16:21;96281.50;;;1.27;100.00
13594;BME280;6449;47.666;9.160;2022-12-10T19:21:19;96286.44;;;1.15;100.00
13594;BME280;6449;47.666;9.160;2022-12-10T19:26:26;96289.56;;;1.04;100.00
13594;BME280;6449;47.666;9.160;2022-12-10T19:31:20;96292.88;;;1.06;100.00
13594;BME280;6449;47.666;9.160;2022-12-10T19:36:20;96294.56;;;1.07;100.00
13594;BME280;6449;47.666;9.160;2022-12-10T19:41:14;96299.31;;;0.80;100.00
13594;BME280;6449;47.666;9.160;2022-12-10T19:46:14;96306.03;;;0.83;100.00
13594;BME280;6449;47.666;9.160;2022-12-10T19:51:08;96314.03;;;0.95;100.00
13594;BME280;6449;47.666;9.160;2022-12-10T19:56:14;96315.56;;;0.99;100.00
13594;BME280;6449;47.666;9.160;2022-12-10T20:01:10;96322.34;;;0.83;100.00
13594;BME280;6449;47.666;9.160;2022-12-10T20:06:11;96311.44;;;0.95;100.00
13594;BME280;6449;47.666;9.160;2022-12-10T20:11:06;96308.53;;;1.03;100.00
13594;BME280;6449;47.666;9.160;2022-12-10T20:16:00;96306.66;;;1.07;100.00
13594;BME280;6449;47.666;9.160;2022-12-10T20:20:54;96306.34;;;1.13;100.00
13594;BME280;6449;47.666;9.160;2022-12-10T20:25:49;96303.56;;;1.17;100.00
13594;BME280;6449;47.666;9.160;2022-12-10T20:30:44;96298.91;;;1.24;100.00
13594;BME280;6449;47.666;9.160;2022-12-10T20:35:38;96299.44;;;1.30;100.00
13594;BME280;6449;47.666;9.160;2022-12-10T20:40:33;96311.44;;;1.31;100.00
13594;BME280;6449;47.666;9.160;2022-12-10T20:45:27;96307.84;;;1.17;100.00
13594;BME280;6449;47.666;9.160;2022-12-10T20:50:22;96314.00;;;1.14;100.00
13594;BME280;6449;47.666;9.160;2022-12-10T20:55:16;96313.25;;;1.12;100.00
13594;BME280;6449;47.666;9.160;2022-12-10T21:00:16;96312.88;;;1.20;100.00
13594;BME280;6449;47.666;9.160;2022-12-10T21:05:11;96320.13;;;1.12;100.00
13594;BME280;6449;47.666;9.160;2022-12-10T21:10:10;96319.25;;;1.13;100.00
13594;BME280;6449;47.666;9.160;2022-12-10T21:15:25;96320.59;;;1.02;100.00
13594;BME280;6449;47.666;9.160;2022-12-10T21:20:20;96314.16;;;1.11;100.00
13594;BME280;6449;47.666;9.160;2022-12-10T21:25:21;96309.16;;;1.08;100.00
13594;BME280;6449;47.666;9.160;2022-12-10T21:30:15;96315.22;;;1.07;100.00
13594;BME280;6449;47.666;9.160;2022-12-10T21:35:08;96308.63;;;1.19;100.00
13594;BME280;6449;47.666;9.160;2022-12-10T21:40:04;96314.31;;;1.25;100.00
13594;BME280;6449;47.666;9.160;2022-12-10T21:45:07;96302.34;;;1.24;100.00
13594;BME280;6449;47.666;9.160;2022-12-10T21:50:01;96293.75;;;1.24;100.00
13594;BME280;6449;47.666;9.160;2022-12-10T21:55:02;96298.53;;;1.14;100.00
13594;BME280;6449;47.666;9.160;2022-12-10T22:00:06;96296.25;;;1.08;100.00
13594;BME280;6449;47.666;9.160;2022-12-10T22:05:01;96303.16;;;1.08;100.00
13594;BME280;6449;47.666;9.160;2022-12-10T22:09:54;96294.94;;;1.17;100.00
13594;BME280;6449;47.666;9.160;2022-12-10T22:14:48;96308.88;;;0.95;100.00
13594;BME280;6449;47.666;9.160;2022-12-10T22:19:43;96307.63;;;0.85;100.00
13594;BME280;6449;47.666;9.160;2022-12-10T22:24:37;96315.44;;;0.84;100.00
13594;BME280;6449;47.666;9.160;2022-12-10T22:29:31;96303.44;;;1.01;100.00
13594;BME280;6449;47.666;9.160;2022-12-10T22:34:25;96301.31;;;1.10;100.00
13594;BME280;6449;47.666;9.160;2022-12-10T22:39:21;96316.38;;;0.83;100.00
13594;BME280;6449;47.666;9.160;2022-12-10T22:44:14;96310.84;;;0.90;100.00
13594;BME280;6449;47.666;9.160;2022-12-10T22:49:08;96311.13;;;0.84;100.00
13594;BME280;6449;47.666;9.160;2022-12-10T22:54:02;96302.88;;;0.95;100.00
13594;BME280;6449;47.666;9.160;2022-12-10T22:58:58;96305.25;;;0.99;100.00
13594;BME280;6449;47.666;9.160;2022-12-10T23:03:53;96305.00;;;0.87;100.00
13594;BME280;6449;47.666;9.160;2022-12-10T23:08:47;96305.25;;;0.99;100.00
13594;BME280;6449;47.666;9.160;2022-12-10T23:13:42;96319.97;;;0.97;100.00
13594;BME280;6449;47.666;9.160;2022-12-10T23:18:37;96313.59;;;1.04;100.00
13594;BME280;6449;47.666;9.160;2022-12-10T23:23:30;96311.41;;;0.97;100.00
13594;BME280;6449;47.666;9.160;2022-12-10T23:28:24;96305.13;;;1.02;100.00
13594;BME280;6449;47.666;9.160;2022-12-10T23:33:17;96298.03;;;1.06;100.00
13594;BME280;6449;47.666;9.160;2022-12-10T23:38:12;96301.09;;;0.97;100.00
13594;BME280;6449;47.666;9.160;2022-12-10T23:43:07;96290.91;;;0.94;100.00
13594;BME280;6449;47.666;9.160;2022-12-10T23:48:00;96294.94;;;0.99;100.00
13594;BME280;6449;47.666;9.160;2022-12-10T23:52:54;96289.22;;;0.93;100.00
13594;BME280;6449;47.666;9.160;2022-12-10T23:57:48;96281.09;;;1.00;100.00
